| time (UTC) | temp C | wind direction | speed KPH | gust KPH | rain 1hr cm | rain 24hr cm | rain mn cm | humidity % | barometer mb |
| 20260507151529 | 14 | 355 | 6.4 | 19.3 | 0.00 | 0.03 | 0.00 | 50 | 1009.9 |
| 20260507150026 | 13 | 313 | 4.8 | 16.1 | 0.00 | 0.03 | 0.00 | 52 | 1010.1 |
| 20260507144529 | 13 | 350 | 3.2 | 16.1 | 0.00 | 0.20 | 0.00 | 52 | 1010.2 |
| 20260507143022 | 12 | 295 | 3.2 | 16.1 | 0.00 | 0.20 | 0.00 | 55 | 1010.4 |
| 20260507141521 | 12 | 276 | 4.8 | 17.7 | 0.00 | 0.20 | 0.00 | 51 | 1010.4 |
| 20260507140018 | 12 | 286 | 6.4 | 16.1 | 0.00 | 0.20 | 0.00 | 53 | 1010.6 |
| 20260507134516 | 12 | 311 | 4.8 | 16.1 | 0.00 | 0.36 | 0.00 | 55 | 1010.9 |
| 20260507133015 | 12 | 264 | 3.2 | 12.9 | 0.00 | 0.36 | 0.00 | 57 | 1011.1 |
| 20260507131523 | 12 | 355 | 8.0 | 16.1 | 0.00 | 0.36 | 0.00 | 61 | 1011.1 |
| 20260507130012 | 11 | 288 | 8.0 | 14.5 | 0.00 | 0.36 | 0.00 | 58 | 1011.0 |
| 20260507124510 | 11 | 301 | 4.8 | 14.5 | 0.00 | 0.43 | 0.00 | 61 | 1011.0 |
| 20260507123009 | 11 | 308 | 8.0 | 14.5 | 0.00 | 0.43 | 0.00 | 64 | 1010.8 |
| 20260507121506 | 11 | 292 | 3.2 | 8.0 | 0.00 | 0.43 | 0.00 | 66 | 1010.7 |
| 20260507120006 | 10 | 277 | 4.8 | 11.3 | 0.00 | 0.46 | 0.00 | 66 | 1010.8 |
| 20260507114505 | 10 | 315 | 3.2 | 8.0 | 0.00 | 0.46 | 0.00 | 68 | 1010.8 |
| 20260507113005 | 10 | 275 | 3.2 | 12.9 | 0.00 | 0.46 | 0.00 | 68 | 1010.9 |
| 20260507111507 | 10 | 297 | 0.0 | 0.0 | 0.00 | 0.46 | 0.00 | 72 | 1010.7 |
| 20260507110002 | 10 | 302 | 0.0 | 0.0 | 0.00 | 0.46 | 0.00 | 70 | 1010.5 |
| 20260507104600 | 10 | 300 | 0.0 | 0.0 | 0.00 | 0.46 | 0.00 | 74 | 1010.2 |
| 20260507103111 | 10 | 292 | 0.0 | 0.0 | 0.00 | 0.46 | 0.00 | 72 | 1010.1 |
| 20260507101601 | 10 | 293 | 0.0 | 0.0 | 0.00 | 0.46 | 0.00 | 77 | 1009.8 |
| 20260507100111 | 10 | 307 | 0.0 | 3.2 | 0.00 | 0.46 | 0.00 | 75 | 1009.7 |
| 20260507094554 | 10 | 308 | 3.2 | 6.4 | 0.00 | 0.46 | 0.00 | 71 | 1009.8 |
| 20260507093057 | 10 | 309 | 1.6 | 8.0 | 0.00 | 0.46 | 0.00 | 67 | 1009.8 |
| 20260507091553 | 10 | 294 | 3.2 | 9.7 | 0.00 | 0.46 | 0.00 | 66 | 1009.8 |
| 20260507090050 | 10 | 348 | 0.0 | 9.7 | 0.00 | 0.46 | 0.00 | 67 | 1009.6 |
| 20260507084550 | 11 | 302 | 4.8 | 9.7 | 0.00 | 0.46 | 0.00 | 65 | 1009.4 |
| 20260507083058 | 11 | 317 | 4.8 | 9.7 | 0.00 | 0.46 | 0.00 | 66 | 1009.1 |
| 20260507081547 | 11 | 305 | 8.0 | 16.1 | 0.00 | 0.46 | 0.00 | 69 | 1009.2 |
| 20260507080042 | 11 | 311 | 6.4 | 16.1 | 0.00 | 0.46 | 0.00 | 73 | 1008.9 |
| 20260507074540 | 11 | 323 | 4.8 | 12.9 | 0.00 | 0.46 | 0.00 | 73 | 1008.9 |
| 20260507073050 | 11 | 302 | 3.2 | 6.4 | 0.00 | 0.46 | 0.00 | 75 | 1009.0 |
| 20260507071537 | 11 | 295 | 3.2 | 12.9 | 0.00 | 0.46 | 0.00 | 76 | 1009.0 |
| 20260507070040 | 11 | 297 | 4.8 | 8.0 | 0.00 | 0.46 | 0.00 | 78 | 1009.2 |
| 20260507064538 | 11 | 304 | 3.2 | 8.0 | 0.00 | 0.46 | 0.00 | 79 | 1009.3 |
| 20260507063033 | 12 | 323 | 1.6 | 8.0 | 0.00 | 0.46 | 0.00 | 77 | 1009.3 |
| 20260507061529 | 12 | 321 | 8.0 | 16.1 | 0.00 | 0.46 | 0.00 | 74 | 1009.3 |
| 20260507060027 | 12 | 293 | 1.6 | 12.9 | 0.00 | 0.46 | 0.00 | 75 | 1009.2 |
| 20260507054531 | 12 | 321 | 6.4 | 17.7 | 0.00 | 0.46 | 0.00 | 75 | 1009.0 |
| 20260507053024 | 12 | 306 | 4.8 | 14.5 | 0.00 | 0.46 | 0.00 | 76 | 1009.0 |
| 20260507051523 | 12 | 336 | 1.6 | 9.7 | 0.00 | 0.46 | 0.00 | 76 | 1008.9 |
| 20260507050031 | 12 | 309 | 6.4 | 16.1 | 0.00 | 0.46 | 0.00 | 77 | 1008.9 |
| 20260507044523 | 12 | 300 | 3.2 | 14.5 | 0.00 | 0.46 | 0.00 | 79 | 1008.8 |
| 20260507043018 | 12 | 311 | 3.2 | 8.0 | 0.00 | 0.46 | 0.00 | 79 | 1009.0 |
| 20260507041528 | 12 | 304 | 0.0 | 8.0 | 0.00 | 0.46 | 0.00 | 79 | 1008.8 |
| 20260507040015 | 12 | 304 | 3.2 | 11.3 | 0.00 | 0.46 | 0.00 | 79 | 1009.0 |
| 20260507034517 | 12 | 292 | 6.4 | 12.9 | 0.00 | 0.46 | 0.46 | 80 | 1008.9 |
| 20260507033011 | 12 | 281 | 1.6 | 17.7 | 0.00 | 0.46 | 0.46 | 80 | 1008.5 |
| 20260507031511 | 13 | 228 | 0.0 | 9.7 | 0.00 | 0.46 | 0.46 | 80 | 1008.6 |
| 20260507030007 | 13 | 269 | 4.8 | 14.5 | 0.00 | 0.46 | 0.46 | 80 | 1008.8 |
| 20260507024505 | 13 | 331 | 9.7 | 16.1 | 0.00 | 0.46 | 0.46 | 79 | 1008.7 |
| 20260507023001 | 13 | 351 | 4.8 | 17.7 | 0.00 | 0.46 | 0.46 | 80 | 1008.4 |
| 20260507021559 | 13 | 279 | 4.8 | 17.7 | 0.00 | 0.46 | 0.46 | 80 | 1008.3 |
| 20260507020110 | 13 | 314 | 8.0 | 16.1 | 0.00 | 0.46 | 0.46 | 80 | 1008.3 |
| 20260507014605 | 14 | 343 | 1.6 | 11.3 | 0.00 | 0.46 | 0.46 | 80 | 1007.9 |
| 20260507013055 | 14 | 294 | 6.4 | 14.5 | 0.00 | 0.46 | 0.46 | 79 | 1008.1 |
| 20260507011552 | 14 | 306 | 3.2 | 16.1 | 0.00 | 0.46 | 0.46 | 79 | 1008.1 |
| 20260507010048 | 15 | 277 | 6.4 | 17.7 | 0.00 | 0.46 | 0.46 | 79 | 1008.0 |
| 20260507004547 | 15 | 300 | 6.4 | 19.3 | 0.00 | 0.46 | 0.46 | 79 | 1008.2 |
| 20260507003044 | 15 | 321 | 6.4 | 16.1 | 0.00 | 0.46 | 0.46 | 79 | 1008.0 |
| 20260507001545 | 15 | 282 | 9.7 | 17.7 | 0.00 | 0.46 | 0.46 | 80 | 1007.7 |
| 20260507000041 | 15 | 290 | 0.0 | 6.4 | 0.00 | 0.46 | 0.46 | 82 | 1007.7 |
| 20260506234540 | 15 | 273 | 3.2 | 9.7 | 0.00 | 0.46 | 0.46 | 79 | 1007.3 |
| 20260506233035 | 16 | 286 | 3.2 | 6.4 | 0.00 | 0.46 | 0.46 | 81 | 1006.7 |
| 20260506231545 | 16 | 293 | 6.4 | 17.7 | 0.00 | 0.46 | 0.46 | 80 | 1006.5 |
| 20260506230045 | 16 | 298 | 3.2 | 17.7 | 0.00 | 0.46 | 0.46 | 81 | 1006.4 |
| 20260506224532 | 16 | 273 | 6.4 | 11.3 | 0.00 | 0.46 | 0.46 | 83 | 1006.2 |
| 20260506223045 | 17 | 293 | 4.8 | 12.9 | 0.00 | 0.46 | 0.46 | 85 | 1006.0 |
| 20260506221531 | 17 | 305 | 3.2 | 11.3 | 0.03 | 0.46 | 0.46 | 88 | 1005.9 |
| 20260506220032 | 18 | 163 | 0.0 | 4.8 | 0.03 | 0.46 | 0.46 | 89 | 1005.7 |
| 20260506214530 | 18 | 166 | 3.2 | 9.7 | 0.03 | 0.46 | 0.46 | 88 | 1005.7 |
| 20260506213031 | 18 | 196 | 4.8 | 9.7 | 0.03 | 0.46 | 0.46 | 87 | 1005.3 |
| 20260506211539 | 18 | 171 | 3.2 | 6.4 | 0.00 | 0.43 | 0.43 | 86 | 1005.3 |
| 20260506210034 | 19 | 172 | 3.2 | 8.0 | 0.00 | 0.43 | 0.43 | 85 | 1004.9 |
| 20260506204529 | 19 | 160 | 1.6 | 12.9 | 0.00 | 0.43 | 0.43 | 83 | 1004.7 |
| 20260506203030 | 20 | 182 | 4.8 | 17.7 | 0.00 | 0.43 | 0.43 | 84 | 1004.6 |
| 20260506201534 | 20 | 169 | 6.4 | 12.9 | 0.00 | 0.43 | 0.43 | 83 | 1004.5 |
| 20260506200027 | 20 | 161 | 8.0 | 12.9 | 0.00 | 0.43 | 0.43 | 83 | 1004.6 |
| 20260506194528 | 20 | 245 | 3.2 | 9.7 | 0.00 | 0.43 | 0.43 | 83 | 1004.6 |
| 20260506193022 | 19 | 210 | 6.4 | 12.9 | 0.00 | 0.43 | 0.43 | 85 | 1004.6 |
| 20260506191543 | 19 | 186 | 3.2 | 8.0 | 0.00 | 0.43 | 0.43 | 87 | 1004.6 |
| 20260506190020 | 18 | 192 | 0.0 | 9.7 | 0.00 | 0.43 | 0.43 | 88 | 1004.7 |
| 20260506184518 | 18 | 161 | 4.8 | 11.3 | 0.00 | 0.43 | 0.43 | 89 | 1005.0 |
| 20260506183027 | 18 | 167 | 8.0 | 14.5 | 0.00 | 0.43 | 0.43 | 87 | 1005.2 |
| 20260506181519 | 18 | 183 | 4.8 | 11.3 | 0.00 | 0.43 | 0.43 | 87 | 1005.2 |
| 20260506180016 | 18 | 177 | 8.0 | 16.1 | 0.00 | 0.43 | 0.43 | 86 | 1005.1 |
| 20260506174514 | 18 | 174 | 4.8 | 14.5 | 0.00 | 0.43 | 0.43 | 85 | 1005.0 |
| 20260506173012 | 18 | 173 | 4.8 | 14.5 | 0.00 | 0.43 | 0.43 | 86 | 1004.9 |
| 20260506171515 | 17 | 165 | 3.2 | 19.3 | 0.00 | 0.43 | 0.43 | 86 | 1004.9 |
| 20260506170013 | 17 | 189 | 4.8 | 20.9 | 0.00 | 0.43 | 0.43 | 87 | 1004.8 |
| 20260506164512 | 17 | 141 | 4.8 | 16.1 | 0.00 | 0.43 | 0.43 | 87 | 1004.9 |
| 20260506163013 | 17 | 141 | 9.7 | 19.3 | 0.00 | 0.43 | 0.43 | 87 | 1004.9 |
| 20260506161512 | 17 | 177 | 4.8 | 11.3 | 0.00 | 0.43 | 0.43 | 89 | 1004.9 |
| 20260506160010 | 17 | 161 | 6.4 | 19.3 | 0.00 | 0.43 | 0.43 | 88 | 1005.0 |
| 20260506154509 | 17 | 134 | 11.3 | 22.5 | 0.00 | 0.43 | 0.43 | 88 | 1005.0 |
| 20260506153010 | 17 | 163 | 6.4 | 25.7 | 0.03 | 0.43 | 0.43 | 89 | 1004.8 |